KJDD

Wood County Airport

Mineola/Quitman, Texas, USA
METAR KJDD 271155Z AUTO 00000KT 10SM CLR 20/20 A2984 RMK AO2
Observed Flight Rules
May-27 @ 11:55 UTC (6 minutes ago) Visual Flight Rules
Visibility Clouds
10 miles
  • Clear skies
Temperatures Readings
Current 20°C / 68°F
Dewpoint 20°C / 68°F
Humidity 100%
Altimeter 29.84" Hg
Pressure 1010 hPa
Elevation 132
METAR KJDD 271155Z AUTO 00000KT 10SM CLR 20/20 A2984 RMK AO2
Observed Flight Rules
May-27 @ 11:55 UTC
(6 minutes ago)
VFR
Clouds
  • Clear skies
Temperature Dewpoint
20°C / 68°F 20°C / 68°F
Humidity Altimeter Pressure
100% 29.84" Hg 1010 hPa